Time;durP1;ratioP1;P1;durP2;ratioP2;P2;SDS_P1;SDS_P2;PMS_P1;PMS_P2;Temp;Humidity;BMP_temperature;BMP_pressure;BME280_temperature;BME280_humidity;BME280_pressure;Samples;Min_cycle;Max_cycle;Signal;HPM_P1;HPM_P2
2023/11/07 00:00:00;;;;;;;16.45;9.13;;;;;;;16.91;46.55;99094.66;4955691;28;20126;-75
2023/11/07 00:02:25;;;;;;;17.40;8.30;;;;;;;16.87;46.68;99095.94;4955975;28;20042;-75
2023/11/07 00:04:51;;;;;;;11.88;6.47;;;;;;;16.88;46.95;99100.22;4939753;28;20475;-75
2023/11/07 00:07:23;;;;;;;10.73;5.97;;;;;;;16.83;47.11;99095.38;4973114;28;20042;-75
2023/11/07 00:09:49;;;;;;;12.77;5.60;;;;;;;16.84;46.99;99099.69;4944389;28;20027;-75
2023/11/07 00:12:15;;;;;;;9.18;4.05;;;;;;;16.80;47.00;99099.13;4959480;28;20093;-75
2023/11/07 00:14:40;;;;;;;6.72;4.45;;;;;;;16.79;47.17;99099.25;4943837;28;20051;-75
2023/11/07 00:17:06;;;;;;;9.93;3.90;;;;;;;16.77;47.36;99104.69;4960322;28;20038;-75
2023/11/07 00:19:32;;;;;;;6.18;3.25;;;;;;;16.72;47.43;99104.31;4976311;28;20125;-75
2023/11/07 00:21:58;;;;;;;6.22;3.40;;;;;;;16.72;47.54;99106.13;4958491;28;20038;-75
2023/11/07 00:24:25;;;;;;;7.18;3.00;;;;;;;16.70;47.47;99108.06;4976619;28;20031;-75
2023/11/07 00:26:51;;;;;;;8.85;3.08;;;;;;;16.67;47.63;99103.94;4959171;28;20066;-75
2023/11/07 00:29:16;;;;;;;6.45;2.17;;;;;;;16.63;47.81;99100.75;4927241;28;20058;-75
2023/11/07 00:31:42;;;;;;;5.90;2.30;;;;;;;16.61;47.96;99107.97;4943054;28;20039;-75
2023/11/07 00:34:07;;;;;;;8.55;2.05;;;;;;;16.60;48.07;99106.31;4942535;28;20047;-75
2023/11/07 00:36:33;;;;;;;5.78;2.13;;;;;;;16.56;47.87;99104.13;4976491;28;20122;-75
2023/11/07 00:39:00;;;;;;;4.50;1.50;;;;;;;16.55;48.07;99102.47;4927053;28;20058;-75
2023/11/07 00:41:26;;;;;;;7.47;1.80;;;;;;;16.54;48.08;99103.41;4927742;28;20037;-75
2023/11/07 00:43:52;;;;;;;4.18;1.38;;;;;;;16.50;48.30;99104.72;4942912;28;20034;-75
2023/11/07 00:46:18;;;;;;;3.92;1.25;;;;;;;16.47;48.36;99113.72;4955615;29;20058;-76
2023/11/07 00:48:44;;;;;;;3.95;1.20;;;;;;;16.44;48.48;99108.75;4939782;29;20467;-76
2023/11/07 00:51:11;;;;;;;3.38;1.15;;;;;;;16.42;48.50;99110.69;4955901;29;20071;-76
2023/11/07 00:53:37;;;;;;;3.38;1.20;;;;;;;16.43;48.48;99114.97;4956803;28;20086;-76
2023/11/07 00:56:03;;;;;;;3.85;1.23;;;;;;;16.40;48.38;99107.41;4939488;29;20402;-76
2023/11/07 00:58:29;;;;;;;3.92;0.90;;;;;;;16.39;48.36;99113.63;4939125;29;20063;-76
2023/11/07 01:00:54;;;;;;;3.47;1.20;;;;;;;16.36;48.54;99117.38;4955406;29;20031;-76
2023/11/07 01:03:21;;;;;;;4.47;1.20;;;;;;;16.36;48.52;99116.56;4939249;29;20027;-76
2023/11/07 01:05:47;;;;;;;3.55;1.00;;;;;;;16.32;48.52;99110.75;4955474;29;20410;-76
2023/11/07 01:08:13;;;;;;;3.63;0.80;;;;;;;16.31;48.57;99113.53;4955353;29;20031;-76
2023/11/07 01:10:39;;;;;;;2.60;0.68;;;;;;;16.31;48.56;99122.25;4954981;29;20151;-76
2023/11/07 01:13:04;;;;;;;3.67;0.70;;;;;;;16.28;48.74;99115.47;4954964;29;20088;-76
2023/11/07 01:15:30;;;;;;;2.42;0.70;;;;;;;16.26;48.71;99112.16;4922902;29;20466;-76
2023/11/07 01:17:57;;;;;;;6.60;1.70;;;;;;;16.23;48.77;99115.06;4954870;28;20032;-76
2023/11/07 01:20:22;;;;;;;3.55;1.20;;;;;;;16.22;48.73;99113.41;4954137;29;20122;-76
2023/11/07 01:22:49;;;;;;;7.35;2.70;;;;;;;16.21;49.19;99110.94;4939212;29;20063;-76
2023/11/07 01:25:15;;;;;;;14.52;6.60;;;;;;;16.16;48.87;99099.97;4954908;29;20031;-76
2023/11/07 01:27:41;;;;;;;31.08;16.00;;;;;;;16.15;49.02;99101.78;4956106;28;20038;-76
2023/11/07 01:30:08;;;;;;;32.72;15.60;;;;;;;16.15;49.00;99112.31;4954447;29;20506;-76
2023/11/07 01:32:33;;;;;;;27.25;14.75;;;;;;;16.13;49.17;99119.56;4939043;29;20038;-76
2023/11/07 01:34:59;;;;;;;29.73;14.82;;;;;;;16.11;49.19;99113.56;4954633;29;20027;-76
2023/11/07 01:37:24;;;;;;;22.55;11.85;;;;;;;16.09;49.30;99120.78;4954578;29;20042;-76
2023/11/07 01:39:50;;;;;;;23.27;11.93;;;;;;;16.08;49.31;99119.97;4955555;29;20470;-76
2023/11/07 01:42:15;;;;;;;22.30;11.00;;;;;;;16.03;49.31;99118.72;4957990;28;20031;-76
2023/11/07 01:44:50;;;;;;;22.58;10.77;;;;;;;16.00;49.40;99121.66;4966595;28;20130;-76
2023/11/07 01:47:16;;;;;;;15.98;8.30;;;;;;;16.02;49.49;99125.81;4955719;28;20039;-76
2023/11/07 01:49:42;;;;;;;12.52;6.65;;;;;;;16.01;49.30;99132.03;4955236;28;20450;-76
2023/11/07 01:52:07;;;;;;;13.70;6.50;;;;;;;15.98;49.31;99136.78;4966728;28;20057;-76
2023/11/07 01:54:32;;;;;;;10.48;5.28;;;;;;;15.92;49.24;99127.63;4950966;28;20054;-76
2023/11/07 01:56:59;;;;;;;11.35;4.57;;;;;;;15.92;49.34;99122.34;4964959;28;20549;-76
2023/11/07 01:59:24;;;;;;;11.77;4.25;;;;;;;15.93;49.56;99133.75;4966797;28;20030;-76
2023/11/07 02:01:50;;;;;;;7.25;3.28;;;;;;;15.90;49.37;99134.84;4956918;28;20069;-76
2023/11/07 02:04:16;;;;;;;7.93;2.92;;;;;;;15.88;49.43;99127.09;4948570;28;20509;-76
2023/11/07 02:06:42;;;;;;;5.55;2.20;;;;;;;15.83;49.20;99129.31;4951688;28;20505;-76
2023/11/07 02:09:08;;;;;;;7.32;2.00;;;;;;;15.85;49.59;99132.63;4957936;28;20106;-76
2023/11/07 02:11:34;;;;;;;5.95;1.80;;;;;;;15.85;49.60;99140.53;4949369;28;20045;-76
2023/11/07 02:14:00;;;;;;;6.88;1.92;;;;;;;15.83;49.35;99141.63;4941734;28;20042;-76
2023/11/07 02:16:25;;;;;;;6.78;1.80;;;;;;;15.82;49.54;99145.25;4965514;28;20086;-76
2023/11/07 02:18:51;;;;;;;4.47;1.30;;;;;;;15.78;49.59;99141.22;4949880;28;20408;-76
2023/11/07 02:21:17;;;;;;;7.45;1.38;;;;;;;15.78;49.68;99146.50;4950730;28;20126;-76
2023/11/07 02:23:42;;;;;;;2.97;1.15;;;;;;;15.77;49.81;99161.47;4948369;28;20487;-76
2023/11/07 02:26:08;;;;;;;4.32;1.48;;;;;;;15.76;49.80;99165.03;4942964;28;20065;-76
2023/11/07 02:28:33;;;;;;;3.20;1.05;;;;;;;15.73;49.94;99163.53;4974329;28;20097;-76
2023/11/07 02:30:59;;;;;;;4.05;0.85;;;;;;;15.73;49.70;99168.78;4956109;28;20039;-76
2023/11/07 02:33:25;;;;;;;2.60;0.85;;;;;;;15.71;49.95;99172.50;4956905;28;20073;-76
2023/11/07 02:35:50;;;;;;;4.05;1.10;;;;;;;15.71;49.84;99169.88;4974202;28;20394;-76
2023/11/07 02:38:19;;;;;;;4.40;1.08;;;;;;;15.68;49.93;99170.16;4957005;28;20035;-76
2023/11/07 02:40:44;;;;;;;2.10;0.80;;;;;;;15.66;50.02;99169.47;4956367;28;20047;-75
2023/11/07 02:43:10;;;;;;;7.03;0.98;;;;;;;15.63;50.12;99170.56;4924535;28;20410;-75
2023/11/07 02:45:36;;;;;;;3.33;0.80;;;;;;;15.62;50.12;99182.06;4940584;28;20046;-75
2023/11/07 02:48:03;;;;;;;3.97;0.80;;;;;;;15.63;49.78;99185.53;4956534;28;20031;-76
2023/11/07 02:50:29;;;;;;;4.30;0.85;;;;;;;15.58;50.06;99166.72;4925132;28;20484;-76
2023/11/07 02:52:54;;;;;;;2.75;0.75;;;;;;;15.63;50.10;99170.56;4940845;28;20062;-76
2023/11/07 02:55:20;;;;;;;1.90;0.60;;;;;;;15.65;50.22;99178.31;4956926;28;20030;-75
2023/11/07 02:57:45;;;;;;;5.45;0.90;;;;;;;15.60;49.97;99176.09;4940702;28;20030;-75
2023/11/07 03:00:12;;;;;;;6.80;1.00;;;;;;;15.60;50.00;99176.09;4924844;28;20046;-76
2023/11/07 03:02:41;;;;;;;7.32;1.15;;;;;;;15.59;50.19;99177.06;4941091;28;20161;-75
2023/11/07 03:05:08;;;;;;;4.78;1.27;;;;;;;15.63;50.02;99182.91;4925073;28;20039;-75
2023/11/07 03:07:33;;;;;;;2.65;0.90;;;;;;;15.60;50.04;99185.81;4941128;28;20025;-75
2023/11/07 03:10:00;;;;;;;2.75;0.88;;;;;;;15.60;50.19;99185.81;4956493;28;20022;-75
2023/11/07 03:12:28;;;;;;;4.63;1.90;;;;;;;15.59;50.04;99184.97;4940392;28;20027;-76
2023/11/07 03:14:53;;;;;;;8.00;0.87;;;;;;;15.55;50.13;99181.78;4924018;28;20039;-76
2023/11/07 03:17:19;;;;;;;4.32;0.70;;;;;;;15.60;50.17;99185.81;4956346;28;20113;-76
2023/11/07 03:19:49;;;;;;;5.97;1.02;;;;;;;15.59;50.05;99184.13;4956428;28;20042;-76
2023/11/07 03:22:15;;;;;;;4.65;0.90;;;;;;;15.55;50.05;99181.78;4941849;28;20062;-76
2023/11/07 03:24:41;;;;;;;3.38;1.10;;;;;;;15.57;50.04;99186.91;4973465;28;20109;-76
2023/11/07 03:27:06;;;;;;;2.92;0.70;;;;;;;15.57;50.16;99189.53;4973387;28;20038;-76
2023/11/07 03:29:32;;;;;;;2.72;0.95;;;;;;;15.56;50.09;99185.28;4924639;28;20042;-76
2023/11/07 03:31:57;;;;;;;2.65;0.80;;;;;;;15.57;49.96;99186.91;4973481;28;20085;-76
2023/11/07 03:34:23;;;;;;;2.83;0.70;;;;;;;15.56;49.81;99186.09;4956313;28;20035;-76
2023/11/07 03:36:48;;;;;;;3.42;0.93;;;;;;;15.56;50.06;99186.09;4924167;28;20585;-75
2023/11/07 03:39:15;;;;;;;1.45;0.63;;;;;;;15.53;49.92;99188.16;4973301;28;20458;-75
2023/11/07 03:41:41;;;;;;;3.30;0.80;;;;;;;15.54;49.83;99185.41;4941255;28;20197;-75
2023/11/07 03:44:06;;;;;;;2.45;0.80;;;;;;;15.53;49.99;99180.28;4960062;28;20125;-75
2023/11/07 03:46:32;;;;;;;1.63;0.50;;;;;;;15.49;50.12;99176.25;4943979;28;20078;-76
2023/11/07 03:48:57;;;;;;;4.13;0.80;;;;;;;15.51;50.16;99188.31;4959850;28;20054;-75
2023/11/07 03:51:23;;;;;;;4.03;0.73;;;;;;;15.51;50.06;99180.41;4943207;28;20110;-75
2023/11/07 03:53:48;;;;;;;2.92;0.85;;;;;;;15.51;49.90;99188.31;4943723;28;20038;-75
2023/11/07 03:56:14;;;;;;;5.53;0.70;;;;;;;15.47;50.06;99186.09;4959773;28;20070;-75
2023/11/07 03:58:40;;;;;;;4.32;0.90;;;;;;;15.49;50.11;99194.66;4943767;28;20039;-75
2023/11/07 04:01:06;;;;;;;4.97;0.77;;;;;;;15.50;49.92;99196.34;4928053;28;20030;-75
2023/11/07 04:03:31;;;;;;;2.15;0.60;;;;;;;15.46;49.86;99192.31;4928163;28;20041;-76
2023/11/07 04:05:57;;;;;;;3.70;0.93;;;;;;;15.49;50.14;99197.28;4943662;28;20031;-77
2023/11/07 04:08:22;;;;;;;6.22;1.10;;;;;;;15.44;50.18;99189.00;4927153;28;20043;-75
2023/11/07 04:10:48;;;;;;;2.95;0.68;;;;;;;15.48;50.07;99198.25;4943664;28;20027;-75
2023/11/07 04:13:13;;;;;;;3.13;0.80;;;;;;;15.47;50.13;99196.63;4976714;28;20035;-76
2023/11/07 04:15:39;;;;;;;8.57;1.50;;;;;;;15.41;50.02;99176.94;4943249;28;20074;-76
2023/11/07 04:18:04;;;;;;;3.55;0.90;;;;;;;15.49;49.92;99197.28;4927534;28;20031;-76
2023/11/07 04:20:32;;;;;;;2.28;0.60;;;;;;;15.49;49.80;99200.75;4927730;28;20039;-76
2023/11/07 04:22:58;;;;;;;4.70;0.68;;;;;;;15.48;49.78;99198.25;4943835;28;20027;-76
2023/11/07 04:25:23;;;;;;;2.85;0.63;;;;;;;15.48;49.82;99201.75;4976286;28;20041;-76
2023/11/07 04:27:49;;;;;;;4.32;0.88;;;;;;;15.48;49.75;99208.78;4959190;28;20039;-76
2023/11/07 04:30:16;;;;;;;2.03;0.63;;;;;;;15.48;49.81;99209.63;4943314;28;20046;-76
2023/11/07 04:32:42;;;;;;;1.55;0.57;;;;;;;15.47;49.86;99215.03;4928973;28;20042;-77
2023/11/07 04:35:09;;;;;;;4.70;0.90;;;;;;;15.45;49.83;99215.16;4942841;28;20525;-75
2023/11/07 04:37:36;;;;;;;2.78;0.80;;;;;;;15.41;49.70;99207.69;4976332;28;20088;-75
2023/11/07 04:40:02;;;;;;;3.17;0.80;;;;;;;15.44;49.87;99224.00;4943067;28;20050;-76
2023/11/07 04:42:28;;;;;;;6.20;1.08;;;;;;;15.41;49.82;99220.84;4958944;28;20048;-76
2023/11/07 04:44:53;;;;;;;3.63;0.80;;;;;;;15.44;49.77;99218.75;4970385;28;20043;-76
2023/11/07 04:47:20;;;;;;;3.47;0.70;;;;;;;15.40;49.62;99217.34;4958841;28;20050;-77
2023/11/07 04:49:46;;;;;;;3.97;1.00;;;;;;;15.43;49.72;99222.34;4975108;28;20027;-77
2023/11/07 04:52:11;;;;;;;2.53;0.60;;;;;;;15.44;49.73;99229.28;4958546;28;20402;-76
2023/11/07 04:54:38;;;;;;;3.40;0.77;;;;;;;15.45;49.69;99230.09;4958302;28;20475;-76
2023/11/07 04:57:05;;;;;;;3.67;0.80;;;;;;;15.42;49.86;99225.97;4974842;28;20019;-78
2023/11/07 04:59:31;;;;;;;2.78;0.93;;;;;;;15.43;49.73;99226.78;4943209;28;20483;-76
2023/11/07 05:01:57;;;;;;;4.60;1.13;;;;;;;15.47;49.57;99228.19;4942787;28;20050;-77
2023/11/07 05:04:22;;;;;;;5.10;0.88;;;;;;;15.53;49.66;99235.53;4974737;28;20497;-77
2023/11/07 05:06:48;;;;;;;4.80;1.30;;;;;;;15.81;61.09;99233.06;4975782;28;20395;-77
2023/11/07 05:09:14;;;;;;;6.88;1.23;;;;;;;16.26;60.80;99241.22;4958735;28;20039;-79
2023/11/07 05:11:40;;;;;;;6.15;1.20;;;;;;;16.72;58.60;99236.09;4958559;28;20042;-79
2023/11/07 05:14:08;;;;;;;3.75;1.20;;;;;;;17.22;56.50;99242.03;4958389;28;20034;-78
2023/11/07 05:16:35;;;;;;;4.00;0.87;;;;;;;17.61;55.00;99245.25;4958628;28;20030;-76
2023/11/07 05:19:00;;;;;;;4.22;0.82;;;;;;;17.59;51.58;99243.75;4974347;28;20675;-77
2023/11/07 05:21:26;;;;;;;5.10;0.95;;;;;;;17.50;50.30;99251.56;4975398;28;20089;-76
2023/11/07 05:23:52;;;;;;;6.03;0.82;;;;;;;17.47;49.28;99254.53;4973708;28;20126;-76
2023/11/07 05:26:17;;;;;;;6.35;1.13;;;;;;;17.41;48.44;99249.84;4975556;28;20380;-78
2023/11/07 05:28:43;;;;;;;3.20;0.70;;;;;;;17.47;48.12;99264.22;4958108;28;20093;-76
2023/11/07 05:31:09;;;;;;;6.03;1.02;;;;;;;17.48;47.79;99266.72;4941981;28;20141;-75
2023/11/07 05:33:36;;;;;;;3.40;0.60;;;;;;;17.63;47.02;99279.41;4974726;28;20493;-77
2023/11/07 05:36:03;;;;;;;4.75;1.00;;;;;;;17.77;46.42;99273.63;4973232;28;20043;-76
2023/11/07 05:38:28;;;;;;;3.83;0.80;;;;;;;18.01;45.98;99277.50;4975668;28;20039;-77
2023/11/07 05:40:54;;;;;;;4.30;1.05;;;;;;;18.26;45.22;99282.03;4957999;28;20038;-77
2023/11/07 05:43:19;;;;;;;4.07;0.80;;;;;;;18.62;44.48;99283.75;4973968;28;20031;-77
2023/11/07 05:45:45;;;;;;;5.95;0.95;;;;;;;19.05;43.54;99281.22;4957906;28;20078;-76
2023/11/07 05:48:11;;;;;;;5.03;1.13;;;;;;;19.57;42.26;99291.66;4958633;28;20034;-77
2023/11/07 05:50:39;;;;;;;4.32;0.90;;;;;;;20.06;41.38;99290.94;4973794;28;20038;-77
2023/11/07 05:53:08;;;;;;;5.95;1.00;;;;;;;20.63;40.44;99292.72;4958178;28;20034;-77
2023/11/07 05:55:35;;;;;;;3.88;0.85;;;;;;;21.22;38.79;99295.09;4972617;28;20538;-77
2023/11/07 05:58:00;;;;;;;11.85;1.00;;;;;;;21.78;37.43;99284.38;4973887;28;20117;-76
2023/11/07 06:00:26;;;;;;;11.15;1.13;;;;;;;22.41;35.82;99289.56;4973746;28;20070;-77
2023/11/07 06:02:52;;;;;;;5.47;1.00;;;;;;;23.07;34.82;99295.03;4974375;28;20023;-77
2023/11/07 06:05:20;;;;;;;4.13;0.80;;;;;;;23.76;33.27;99285.81;4972249;28;20094;-76
2023/11/07 06:07:45;;;;;;;7.37;0.80;;;;;;;24.52;32.20;99295.16;4958147;28;20054;-76
2023/11/07 06:10:11;;;;;;;5.50;1.02;;;;;;;25.23;30.57;99278.94;4974766;28;20463;-76
2023/11/07 06:12:36;;;;;;;5.85;1.13;;;;;;;26.07;29.59;99286.84;4941379;28;20439;-77
2023/11/07 06:15:02;;;;;;;1.80;0.70;;;;;;;26.94;28.15;99290.28;4941281;28;20031;-78
2023/11/07 06:17:27;;;;;;;3.42;0.90;;;;;;;27.80;26.94;99293.66;4956733;28;20049;-77
2023/11/07 06:19:53;;;;;;;3.40;1.00;;;;;;;28.63;25.60;99289.16;4957244;28;20560;-77
2023/11/07 06:22:19;;;;;;;7.00;0.95;;;;;;;29.40;24.84;99292.22;4957967;28;20046;-77
2023/11/07 06:24:46;;;;;;;3.58;1.10;;;;;;;30.22;23.62;99296.25;4974553;28;20093;-79
2023/11/07 06:27:12;;;;;;;6.68;1.40;;;;;;;30.88;22.22;99296.16;4957173;28;20041;-77
2023/11/07 06:29:46;;;;;;;8.75;1.45;;;;;;;31.56;21.74;99301.88;4955337;28;20059;-81
2023/11/07 06:32:13;;;;;;;4.15;1.02;;;;;;;31.85;21.82;99304.56;4973104;28;20030;-72
2023/11/07 06:34:40;;;;;;;5.20;1.30;;;;;;;31.91;21.59;99307.13;4974001;28;20117;-72
2023/11/07 06:37:06;;;;;;;14.48;1.50;;;;;;;32.38;21.79;99314.13;4958008;28;20482;-72
2023/11/07 06:39:32;;;;;;;9.00;2.50;;;;;;;32.56;21.27;99307.66;4957664;28;20061;-71
2023/11/07 06:41:58;;;;;;;12.60;3.25;;;;;;;32.89;20.77;99316.75;4973163;28;20494;-71
2023/11/07 06:44:24;;;;;;;16.02;6.75;;;;;;;33.44;20.61;99316.94;4957453;28;20034;-72
2023/11/07 06:46:51;;;;;;;9.60;4.47;;;;;;;33.91;19.40;99315.56;4960039;28;20027;-76
2023/11/07 06:49:17;;;;;;;9.98;6.10;;;;;;;34.21;18.78;99315.81;4944904;28;20042;-72
2023/11/07 06:51:43;;;;;;;11.18;3.50;;;;;;;34.42;18.70;99313.28;4960354;28;20495;-71
2023/11/07 06:54:09;;;;;;;18.95;13.57;;;;;;;34.33;19.06;99321.09;4959906;28;20208;-73
2023/11/07 06:56:34;;;;;;;12.60;6.55;;;;;;;33.92;18.92;99315.28;4974942;28;20034;-72
2023/11/07 06:59:00;;;;;;;12.63;8.60;;;;;;;33.27;19.18;99325.97;4975900;28;20113;-72
2023/11/07 07:01:25;;;;;;;16.77;6.38;;;;;;;32.70;19.28;99331.66;4959842;28;20026;-71
2023/11/07 07:03:54;;;;;;;14.77;6.68;;;;;;;32.22;20.56;99329.25;4948449;28;20034;-72
2023/11/07 07:06:23;;;;;;;21.60;4.45;;;;;;;31.65;20.83;99340.91;4939887;28;20041;-71
2023/11/07 07:08:52;;;;;;;21.77;3.80;;;;;;;31.14;21.91;99338.00;4941484;28;20047;-76
2023/11/07 07:11:20;;;;;;;19.50;5.00;;;;;;;30.60;21.97;99337.28;4957743;28;20061;-72
2023/11/07 07:13:45;;;;;;;;;;;;;;;30.56;22.71;99338.81;4957321;28;20052;-74
2023/11/07 07:16:13;;;;;;;15.15;3.70;;;;;;;30.41;22.48;99333.88;4956526;28;19914;-73
2023/11/07 07:18:39;;;;;;;;;;;;;;;30.33;22.72;99344.94;4964759;28;20038;-74
2023/11/07 07:21:05;;;;;;;22.17;6.30;;;;;;;30.32;22.85;99344.16;4957269;28;20397;-76
2023/11/07 07:23:36;;;;;;;20.75;5.30;;;;;;;29.58;23.23;99336.28;4942996;28;20070;-76
2023/11/07 07:26:08;;;;;;;23.98;5.63;;;;;;;29.15;24.21;99334.50;4960686;28;20118;-78
2023/11/07 07:28:38;;;;;;;11.77;4.10;;;;;;;29.25;23.43;99336.69;4940869;28;20581;-78
2023/11/07 07:31:06;;;;;;;15.98;5.00;;;;;;;29.27;24.25;99342.66;4974513;28;20031;-76
2023/11/07 07:33:41;;;;;;;13.10;4.35;;;;;;;29.31;24.34;99339.28;4974511;28;20394;-75
2023/11/07 07:36:14;;;;;;;15.13;6.32;;;;;;;29.55;24.07;99340.22;4958083;28;20057;-79
2023/11/07 07:38:43;;;;;;;13.65;2.80;;;;;;;29.68;23.46;99335.72;4927093;28;20023;-79
2023/11/07 07:41:10;;;;;;;13.73;3.40;;;;;;;29.77;23.52;99334.34;4962430;28;20055;-77
2023/11/07 07:43:38;;;;;;;10.88;2.85;;;;;;;29.76;23.16;99330.84;4943350;28;20031;-76
2023/11/07 07:46:07;;;;;;;13.60;3.88;;;;;;;29.90;23.71;99333.38;4958951;28;20096;-76
2023/11/07 07:48:34;;;;;;;9.13;2.25;;;;;;;29.92;22.96;99333.97;4956599;28;20034;-76
2023/11/07 07:51:01;;;;;;;7.30;1.98;;;;;;;29.97;21.82;99327.91;4956050;28;20525;-77
2023/11/07 07:53:26;;;;;;;7.32;1.75;;;;;;;29.94;22.46;99326.50;4939861;28;20049;-74
2023/11/07 07:55:55;;;;;;;8.70;1.98;;;;;;;30.13;22.81;99328.06;4928674;28;20478;-72
2023/11/07 07:58:21;;;;;;;7.30;2.00;;;;;;;30.14;22.85;99318.09;4940558;28;20045;-72
2023/11/07 08:00:49;;;;;;;7.13;1.85;;;;;;;30.09;23.35;99320.69;4940446;28;20039;-73
2023/11/07 08:03:16;;;;;;;9.15;2.28;;;;;;;29.85;23.65;99309.84;4924946;28;20103;-71
2023/11/07 08:05:43;;;;;;;8.73;2.10;;;;;;;29.89;23.70;99318.31;4957114;28;20486;-72
2023/11/07 08:08:13;;;;;;;18.30;2.83;;;;;;;29.74;23.86;99316.78;4924447;28;20034;-73
2023/11/07 08:10:39;;;;;;;6.57;1.77;;;;;;;29.96;24.01;99316.31;4924752;28;20232;-70
2023/11/07 08:13:06;;;;;;;10.30;2.20;;;;;;;30.10;24.68;99316.94;4924042;28;20030;-71
2023/11/07 08:15:34;;;;;;;14.15;2.20;;;;;;;30.22;24.85;99322.34;4940383;28;20047;-72
2023/11/07 08:18:01;;;;;;;11.55;2.00;;;;;;;30.21;25.03;99312.63;4924526;28;20498;-75
2023/11/07 08:20:28;;;;;;;;;;;;;;;30.20;25.62;99322.56;4972062;28;20125;-69
2023/11/07 08:22:54;;;;;;;14.07;1.95;;;;;;;30.12;25.08;99321.03;4987663;28;19914;-73
2023/11/07 08:25:21;;;;;;;13.70;2.35;;;;;;;30.07;25.72;99333.56;4940303;28;20027;-74
2023/11/07 08:27:48;;;;;;;8.23;1.60;;;;;;;30.55;25.19;99331.78;4941379;28;20041;-73
2023/11/07 08:30:17;;;;;;;8.05;2.20;;;;;;;30.56;24.37;99331.53;4927460;28;20043;-73
2023/11/07 08:32:43;;;;;;;10.23;1.95;;;;;;;30.85;23.24;99339.75;4944174;28;20035;-76
2023/11/07 08:35:18;;;;;;;9.57;1.88;;;;;;;30.79;23.23;99335.28;4963041;28;20046;-83
2023/11/07 08:37:51;;;;;;;10.70;1.80;;;;;;;30.98;23.48;99333.31;4951940;28;20118;-82
2023/11/07 08:40:20;;;;;;;6.13;1.85;;;;;;;31.12;24.28;99339.28;4951603;28;20034;-88
2023/11/07 08:42:48;;;;;;;8.25;2.03;;;;;;;31.05;24.73;99335.91;4973127;28;20065;-83
2023/11/07 08:45:21;;;;;;;9.43;2.30;;;;;;;31.23;23.71;99340.31;4953336;28;20110;-80
2023/11/07 08:47:56;;;;;;;9.35;2.20;;;;;;;31.96;21.61;99335.25;4964816;28;20030;-82
2023/11/07 08:50:29;;;;;;;7.40;1.98;;;;;;;31.98;21.64;99333.16;4959987;28;20059;-81
2023/11/07 08:52:56;;;;;;;10.32;1.65;;;;;;;32.46;21.07;99337.19;4976462;28;20426;-80
2023/11/07 08:55:22;;;;;;;7.15;1.70;;;;;;;33.56;19.74;99333.84;4948479;28;20034;-82
2023/11/07 08:57:51;;;;;;;5.35;1.52;;;;;;;33.24;20.13;99320.22;4928500;28;20035;-79
2023/11/07 09:00:22;;;;;;;7.95;1.80;;;;;;;32.98;19.98;99334.19;4990221;28;20078;-79
2023/11/07 09:02:49;;;;;;;14.68;2.17;;;;;;;31.48;21.77;99323.81;4966173;28;20026;-83
2023/11/07 09:05:17;;;;;;;10.05;2.08;;;;;;;31.29;22.28;99331.28;4982255;28;20030;-85
2023/11/07 09:07:42;;;;;;;8.55;1.63;;;;;;;31.07;23.16;99336.47;4949694;28;20054;-87
2023/11/07 09:10:11;;;;;;;8.70;1.60;;;;;;;32.37;23.76;99344.06;4963708;28;20038;-86
2023/11/07 09:12:37;;;;;;;9.65;1.90;;;;;;;32.11;24.46;99335.56;4965819;28;20045;-86
2023/11/07 09:15:06;;;;;;;5.22;1.30;;;;;;;32.27;23.74;99336.63;4991983;28;20398;-88
2023/11/07 09:17:32;;;;;;;8.05;1.60;;;;;;;32.17;24.54;99328.38;4964797;28;20034;-88
2023/11/07 09:20:02;;;;;;;9.48;1.73;;;;;;;32.26;24.15;99332.28;4969362;28;20046;-90
2023/11/07 09:22:28;;;;;;;6.60;1.63;;;;;;;32.14;24.98;99326.97;5115497;23;20065;-87
2023/11/07 09:24:54;;;;;;;5.82;1.50;;;;;;;32.88;23.34;99323.25;4992627;28;20031;-89
2023/11/07 09:27:22;;;;;;;2.88;1.20;;;;;;;33.15;23.90;99323.34;4981233;28;20054;-90
2023/11/07 09:29:48;;;;;;;4.75;1.52;;;;;;;33.50;22.94;99315.94;4963423;28;20027;-89
2023/11/07 09:32:13;;;;;;;4.55;1.30;;;;;;;33.38;22.97;99317.94;4982295;28;20035;-81
2023/11/07 09:34:40;;;;;;;8.38;1.50;;;;;;;33.68;22.48;99309.34;4975976;28;20034;-81
2023/11/07 09:37:07;;;;;;;11.32;1.92;;;;;;;33.93;22.01;99297.16;4958544;28;20034;-80
2023/11/07 09:39:33;;;;;;;6.28;2.00;;;;;;;34.31;21.74;99300.75;4964325;28;20121;-81
2023/11/07 09:41:59;;;;;;;14.45;1.83;;;;;;;34.59;21.46;99291.44;4993867;28;20037;-78
2023/11/07 09:44:27;;;;;;;11.98;1.90;;;;;;;34.77;21.19;99288.31;4993958;28;20022;-79
2023/11/07 09:46:52;;;;;;;7.18;1.65;;;;;;;35.00;20.67;99282.72;4978629;28;20037;-83
2023/11/07 09:49:19;;;;;;;12.48;2.42;;;;;;;35.10;20.99;99280.88;4961641;28;20034;-79
2023/11/07 09:51:46;;;;;;;11.80;2.27;;;;;;;35.23;21.20;99276.84;4961436;28;20414;-81
2023/11/07 09:54:13;;;;;;;8.95;1.60;;;;;;;35.27;20.51;99271.75;4977848;28;20404;-78
2023/11/07 09:56:43;;;;;;;9.20;1.65;;;;;;;35.36;20.11;99266.59;4977994;28;20022;-78
2023/11/07 09:59:20;;;;;;;10.82;2.00;;;;;;;35.32;20.12;99260.91;4993861;28;20034;-78
2023/11/07 10:01:46;;;;;;;8.60;2.08;;;;;;;35.29;20.40;99256.00;4993482;28;20094;-78
2023/11/07 10:04:12;;;;;;;7.88;1.90;;;;;;;35.18;20.42;99251.59;4993094;28;20037;-78
2023/11/07 10:06:38;;;;;;;9.13;2.08;;;;;;;35.04;20.91;99254.00;4960835;28;20512;-77
2023/11/07 10:09:04;;;;;;;11.20;2.00;;;;;;;34.93;20.80;99245.84;4977161;28;20042;-78
2023/11/07 10:11:30;;;;;;;8.77;2.08;;;;;;;34.79;21.36;99239.25;4977274;28;20026;-78
2023/11/07 10:14:00;;;;;;;11.60;1.90;;;;;;;34.61;21.40;99227.75;4977328;28;20417;-78
2023/11/07 10:16:38;;;;;;;9.27;1.98;;;;;;;34.35;21.88;99239.50;4960639;28;20075;-78
2023/11/07 10:19:04;;;;;;;12.38;1.95;;;;;;;34.10;22.28;99248.28;4977391;28;20034;-79
2023/11/07 10:21:34;;;;;;;14.57;2.57;;;;;;;33.92;22.65;99231.34;4960162;28;20046;-79
2023/11/07 10:24:00;;;;;;;14.50;2.33;;;;;;;33.72;22.97;99230.09;4960645;28;20876;-79
2023/11/07 10:26:25;;;;;;;14.75;2.25;;;;;;;33.51;23.22;99229.06;4993856;28;20030;-81
2023/11/07 10:29:04;;;;;;;14.00;2.25;;;;;;;33.23;23.91;99224.72;4960387;28;20465;-78
2023/11/07 10:31:30;;;;;;;11.65;2.50;;;;;;;33.21;24.61;99220.63;4977243;28;20034;-78
2023/11/07 10:34:16;;;;;;;12.05;2.38;;;;;;;33.05;24.83;99225.03;4960715;28;20030;-78
2023/11/07 10:36:43;;;;;;;14.80;2.45;;;;;;;32.92;25.11;99218.94;4992653;28;20046;-78
2023/11/07 10:39:16;;;;;;;15.63;2.38;;;;;;;32.74;25.35;99222.78;4961301;28;20026;-80
2023/11/07 10:41:45;;;;;;;13.43;2.47;;;;;;;32.58;25.63;99202.00;4960879;28;20517;-79
2023/11/07 10:44:28;;;;;;;19.65;2.40;;;;;;;32.42;25.97;99190.19;4976742;28;20023;-80
2023/11/07 10:46:57;;;;;;;12.73;2.47;;;;;;;32.23;26.31;99197.72;4992902;28;20481;-78
2023/11/07 10:49:23;;;;;;;13.98;2.13;;;;;;;32.09;26.49;99206.19;4976264;28;20030;-78
2023/11/07 10:51:48;;;;;;;16.83;2.30;;;;;;;32.01;26.71;99195.78;4976109;28;20033;-79
2023/11/07 10:54:15;;;;;;;12.35;2.10;;;;;;;31.84;27.06;99192.28;4976829;28;20068;-80
2023/11/07 10:56:43;;;;;;;15.80;2.63;;;;;;;31.62;27.77;99189.47;4976546;28;20106;-79
2023/11/07 10:59:24;;;;;;;19.08;2.28;;;;;;;31.59;28.22;99188.09;4976520;28;20109;-78
2023/11/07 11:01:50;;;;;;;15.18;2.38;;;;;;;31.46;28.12;99186.47;4992059;28;20105;-79
2023/11/07 11:04:25;;;;;;;14.80;2.42;;;;;;;31.23;28.65;99181.22;4976532;28;20046;-79
2023/11/07 11:06:52;;;;;;;19.45;2.45;;;;;;;31.00;29.05;99178.38;4977415;28;20030;-79
2023/11/07 11:09:18;;;;;;;17.70;2.30;;;;;;;31.03;29.40;99177.91;4976406;28;20058;-78
2023/11/07 11:11:46;;;;;;;16.67;2.10;;;;;;;30.91;29.31;99170.88;4960350;28;20065;-79
2023/11/07 11:14:12;;;;;;;19.23;2.75;;;;;;;30.81;29.29;99183.09;4976338;28;20042;-78
2023/11/07 11:16:39;;;;;;;15.13;2.30;;;;;;;30.67;29.56;99174.44;4960310;28;20513;-78
2023/11/07 11:19:23;;;;;;;15.90;2.22;;;;;;;30.57;29.60;99176.94;4960245;28;20036;-79
2023/11/07 11:22:18;;;;;;;14.40;2.20;;;;;;;30.40;29.34;99167.97;4991730;28;20062;-79
2023/11/07 11:24:44;;;;;;;12.80;1.80;;;;;;;30.28;29.63;99163.38;4985437;28;20399;-79
2023/11/07 11:27:33;;;;;;;16.83;2.35;;;;;;;30.06;29.92;99163.16;4992292;28;20061;-78
2023/11/07 11:29:58;;;;;;;13.50;2.03;;;;;;;29.95;30.25;99163.97;4975943;28;20023;-78